createdAt,value
2023-02-14T00:00:16.722Z,617.0000
2023-02-14T00:01:19.131Z,617.0000
2023-02-14T00:02:21.634Z,618.0000
2023-02-14T00:03:21.869Z,614.0000
2023-02-14T00:04:24.401Z,612.0000
2023-02-14T00:05:26.665Z,613.0000
2023-02-14T00:06:26.969Z,613.0000
2023-02-14T00:07:29.331Z,611.0000
2023-02-14T00:08:31.752Z,612.0000
2023-02-14T00:09:34.099Z,612.0000
2023-02-14T00:10:36.476Z,614.0000
2023-02-14T00:11:36.689Z,613.0000
2023-02-14T00:12:39.051Z,615.0000
2023-02-14T00:13:41.443Z,614.0000
2023-02-14T00:14:43.793Z,613.0000
2023-02-14T00:15:44.068Z,615.0000
2023-02-14T00:16:46.394Z,615.0000
2023-02-14T00:17:48.763Z,613.0000
2023-02-14T00:18:51.184Z,613.0000
2023-02-14T00:19:53.445Z,616.0000
2023-02-14T00:20:53.682Z,616.0000
2023-02-14T00:21:56.059Z,613.0000
2023-02-14T00:22:58.408Z,611.0000
2023-02-14T00:24:00.768Z,612.0000
2023-02-14T00:25:01.001Z,611.0000
2023-02-14T00:26:03.400Z,611.0000
2023-02-14T00:27:05.844Z,612.0000
2023-02-14T00:28:08.192Z,613.0000
2023-02-14T00:29:08.477Z,614.0000
2023-02-14T00:30:10.867Z,614.0000
2023-02-14T00:31:13.381Z,615.0000
2023-02-14T00:32:15.773Z,615.0000
2023-02-14T00:33:15.868Z,617.0000
2023-02-14T00:34:18.302Z,617.0000
2023-02-14T00:35:20.661Z,613.0000
2023-02-14T00:36:23.064Z,606.0000
2023-02-14T00:37:23.337Z,608.0000
2023-02-14T00:38:25.701Z,607.0000
2023-02-14T00:39:28.151Z,607.0000
2023-02-14T00:40:30.565Z,611.0000
2023-02-14T00:41:30.776Z,612.0000
2023-02-14T00:42:33.175Z,609.0000
2023-02-14T00:43:35.574Z,609.0000
2023-02-14T00:44:38.006Z,607.0000
2023-02-14T00:45:38.272Z,606.0000
2023-02-14T00:46:40.637Z,607.0000
2023-02-14T00:47:43.036Z,605.0000
2023-02-14T00:48:45.368Z,607.0000
2023-02-14T00:49:45.756Z,608.0000
2023-02-14T00:50:48.109Z,606.0000
2023-02-14T00:51:50.586Z,604.0000
2023-02-14T00:52:50.842Z,602.0000
2023-02-14T00:53:53.209Z,605.0000
2023-02-14T00:54:55.645Z,606.0000
2023-02-14T00:55:58.064Z,611.0000
2023-02-14T00:56:58.322Z,607.0000
2023-02-14T00:58:00.699Z,610.0000
2023-02-14T00:59:02.989Z,611.0000
2023-02-14T01:00:05.388Z,611.0000
2023-02-14T01:01:07.761Z,611.0000
2023-02-14T01:02:08.005Z,612.0000
2023-02-14T01:03:10.319Z,609.0000
2023-02-14T01:04:12.711Z,611.0000
2023-02-14T01:05:15.265Z,611.0000
2023-02-14T01:06:17.499Z,611.0000
2023-02-14T01:07:19.894Z,608.0000
2023-02-14T01:08:22.328Z,606.0000
2023-02-14T01:09:22.553Z,604.0000
2023-02-14T01:10:25.059Z,604.0000
2023-02-14T01:11:30.096Z,602.0000
2023-02-14T01:12:29.626Z,601.0000
2023-02-14T01:14:49.687Z,598.0000
2023-02-14T01:15:51.836Z,596.0000
2023-02-14T01:16:54.283Z,596.0000
2023-02-14T01:17:54.350Z,594.0000
2023-02-14T01:18:56.726Z,595.0000
2023-02-14T01:20:01.271Z,594.0000
2023-02-14T01:20:57.757Z,596.0000
2023-02-14T01:21:57.410Z,590.0000
2023-02-14T01:22:59.773Z,588.0000
2023-02-14T01:24:02.224Z,585.0000
2023-02-14T01:25:04.607Z,587.0000
2023-02-14T01:26:04.980Z,589.0000
2023-02-14T01:27:07.212Z,591.0000
2023-02-14T01:28:09.597Z,592.0000
2023-02-14T01:29:12.003Z,590.0000
2023-02-14T01:31:40.745Z,590.0000
2023-02-14T01:32:42.871Z,589.0000
2023-02-14T01:33:45.244Z,589.0000
2023-02-14T01:34:47.578Z,590.0000
2023-02-14T01:35:47.760Z,590.0000
2023-02-14T01:36:50.147Z,589.0000
2023-02-14T01:37:52.416Z,589.0000
2023-02-14T01:38:54.754Z,587.0000
2023-02-14T01:39:57.115Z,586.0000
2023-02-14T01:40:57.612Z,587.0000
2023-02-14T01:41:59.682Z,589.0000
2023-02-14T01:43:01.993Z,587.0000
2023-02-14T01:44:04.364Z,588.0000
2023-02-14T01:45:06.727Z,586.0000
2023-02-14T01:46:07.007Z,586.0000
2023-02-14T01:47:09.372Z,588.0000
2023-02-14T01:48:13.826Z,588.0000
2023-02-14T01:48:46.092Z,588.0000
2023-02-14T01:49:46.319Z,589.0000
2023-02-14T01:50:48.657Z,587.0000
2023-02-14T01:51:51.029Z,586.0000
2023-02-14T01:52:53.360Z,587.0000
2023-02-14T01:53:55.646Z,585.0000
2023-02-14T01:54:57.937Z,584.0000
2023-02-14T01:55:58.133Z,583.0000
2023-02-14T01:57:00.493Z,589.0000
2023-02-14T01:58:02.932Z,589.0000
2023-02-14T01:59:05.282Z,589.0000
2023-02-14T02:00:05.506Z,588.0000
2023-02-14T02:01:07.919Z,588.0000
2023-02-14T02:02:10.377Z,586.0000
2023-02-14T02:03:12.715Z,587.0000
2023-02-14T02:04:15.099Z,586.0000
2023-02-14T02:05:15.343Z,585.0000
2023-02-14T02:06:17.742Z,583.0000
2023-02-14T02:07:20.126Z,585.0000
2023-02-14T02:08:22.539Z,584.0000
2023-02-14T02:09:22.737Z,580.0000
2023-02-14T02:10:25.098Z,581.0000
2023-02-14T02:11:27.451Z,578.0000
2023-02-14T02:12:30.997Z,580.0000
2023-02-14T02:13:30.084Z,583.0000
2023-02-14T02:14:32.432Z,582.0000
2023-02-14T02:15:34.824Z,581.0000
2023-02-14T02:16:37.206Z,580.0000
2023-02-14T02:17:39.520Z,580.0000
2023-02-14T02:18:39.690Z,581.0000
2023-02-14T02:19:42.020Z,579.0000
2023-02-14T02:20:44.442Z,580.0000
2023-02-14T02:21:46.858Z,580.0000
2023-02-14T02:22:49.278Z,577.0000
2023-02-14T02:23:49.648Z,578.0000
2023-02-14T02:24:51.938Z,580.0000
2023-02-14T02:25:54.355Z,580.0000
2023-02-14T02:26:56.788Z,579.0000
2023-02-14T02:27:59.128Z,578.0000
2023-02-14T02:29:01.686Z,574.0000
2023-02-14T02:30:01.845Z,576.0000
2023-02-14T02:31:04.493Z,578.0000
2023-02-14T02:32:06.590Z,578.0000
2023-02-14T02:34:28.468Z,570.0000
2023-02-14T02:35:30.728Z,573.0000
2023-02-14T02:36:33.111Z,577.0000
2023-02-14T02:37:35.519Z,575.0000
2023-02-14T02:38:35.716Z,578.0000
2023-02-14T02:39:38.068Z,581.0000
2023-02-14T02:40:42.541Z,581.0000
2023-02-14T02:41:34.173Z,583.0000
2023-02-14T02:42:34.446Z,583.0000
2023-02-14T02:43:36.789Z,583.0000
2023-02-14T02:44:39.216Z,577.0000
2023-02-14T02:45:41.613Z,575.0000
2023-02-14T02:46:41.804Z,574.0000
2023-02-14T02:47:44.176Z,572.0000
2023-02-14T02:48:46.542Z,570.0000
2023-02-14T02:49:48.927Z,566.0000
2023-02-14T02:50:51.256Z,570.0000
2023-02-14T02:51:51.482Z,571.0000
2023-02-14T02:52:53.843Z,572.0000
2023-02-14T02:53:56.208Z,570.0000
2023-02-14T02:54:58.600Z,571.0000
2023-02-14T02:56:00.903Z,572.0000
2023-02-14T02:57:01.090Z,569.0000
2023-02-14T02:58:03.473Z,565.0000
2023-02-14T02:59:05.834Z,565.0000
2023-02-14T03:00:08.286Z,564.0000
2023-02-14T03:01:08.415Z,564.0000
2023-02-14T03:02:10.719Z,567.0000
2023-02-14T03:03:13.089Z,568.0000
2023-02-14T03:04:15.399Z,567.0000
2023-02-14T03:05:17.798Z,569.0000
2023-02-14T03:06:20.128Z,569.0000
2023-02-14T03:07:20.394Z,570.0000
2023-02-14T03:08:22.759Z,572.0000
2023-02-14T03:09:25.172Z,574.0000
2023-02-14T03:10:27.556Z,574.0000
2023-02-14T03:11:27.772Z,574.0000
2023-02-14T03:12:30.175Z,573.0000
2023-02-14T03:13:32.619Z,571.0000
2023-02-14T03:14:34.975Z,575.0000
2023-02-14T03:15:35.304Z,574.0000
2023-02-14T03:16:37.642Z,574.0000
2023-02-14T03:17:40.024Z,574.0000
2023-02-14T03:18:42.416Z,571.0000
2023-02-14T03:19:44.820Z,572.0000
2023-02-14T03:20:47.190Z,573.0000
2023-02-14T03:21:49.538Z,575.0000
2023-02-14T03:22:49.737Z,569.0000
2023-02-14T03:23:53.102Z,569.0000
2023-02-14T03:24:54.425Z,570.0000
2023-02-14T03:25:56.919Z,573.0000
2023-02-14T03:27:31.829Z,559.0000
2023-02-14T03:28:33.061Z,559.0000
2023-02-14T03:29:34.399Z,561.0000
2023-02-14T03:30:36.717Z,561.0000
2023-02-14T03:31:39.272Z,560.0000
2023-02-14T03:32:41.457Z,562.0000
2023-02-14T03:33:41.670Z,567.0000
2023-02-14T03:34:44.035Z,564.0000
2023-02-14T03:35:46.373Z,568.0000
2023-02-14T03:36:48.812Z,565.0000
2023-02-14T03:37:51.167Z,565.0000
2023-02-14T03:38:51.444Z,561.0000
2023-02-14T03:39:53.861Z,563.0000
2023-02-14T03:40:56.244Z,562.0000
2023-02-14T03:41:58.611Z,563.0000
2023-02-14T03:42:58.863Z,562.0000
2023-02-14T03:44:01.233Z,560.0000
2023-02-14T03:45:03.753Z,560.0000
2023-02-14T03:46:06.069Z,560.0000
2023-02-14T03:47:06.309Z,560.0000
2023-02-14T03:48:08.700Z,559.0000
2023-02-14T03:49:11.088Z,560.0000
2023-02-14T03:50:13.511Z,562.0000
2023-02-14T03:51:13.803Z,565.0000
2023-02-14T03:52:16.266Z,562.0000
2023-02-14T03:53:18.665Z,563.0000
2023-02-14T03:54:21.026Z,564.0000
2023-02-14T03:55:21.249Z,566.0000
2023-02-14T03:56:23.647Z,567.0000
2023-02-14T03:57:26.071Z,561.0000
2023-02-14T03:58:28.431Z,563.0000
2023-02-14T03:59:28.663Z,566.0000
2023-02-14T04:00:31.048Z,569.0000
2023-02-14T04:01:33.487Z,571.0000
2023-02-14T04:02:35.897Z,577.0000
2023-02-14T04:03:36.217Z,580.0000
2023-02-14T04:04:38.545Z,582.0000
2023-02-14T04:05:40.995Z,584.0000
2023-02-14T04:06:41.275Z,586.0000
2023-02-14T04:07:43.719Z,589.0000
2023-02-14T04:08:46.112Z,593.0000
2023-02-14T04:09:46.392Z,595.0000
2023-02-14T04:10:48.807Z,602.0000
2023-02-14T04:11:51.246Z,607.0000
2023-02-14T04:12:53.659Z,610.0000
2023-02-14T04:13:53.886Z,617.0000
2023-02-14T04:14:56.309Z,620.0000
2023-02-14T04:15:58.823Z,624.0000
2023-02-14T04:17:01.145Z,627.0000
2023-02-14T04:18:01.529Z,630.0000
2023-02-14T04:19:03.801Z,630.0000
2023-02-14T04:20:11.517Z,629.0000
2023-02-14T04:21:11.769Z,628.0000
2023-02-14T04:22:14.204Z,627.0000
2023-02-14T04:23:16.672Z,628.0000
2023-02-14T04:24:19.066Z,632.0000
2023-02-14T04:25:21.439Z,632.0000
2023-02-14T04:26:21.641Z,631.0000
2023-02-14T04:27:24.023Z,637.0000
2023-02-14T04:28:26.406Z,638.0000
2023-02-14T04:29:26.564Z,636.0000
2023-02-14T04:30:29.010Z,638.0000
2023-02-14T04:31:31.509Z,639.0000
2023-02-14T04:32:31.567Z,636.0000
2023-02-14T04:33:33.911Z,638.0000
2023-02-14T04:34:36.261Z,638.0000
2023-02-14T04:35:36.499Z,640.0000
2023-02-14T04:36:38.935Z,646.0000
2023-02-14T04:37:41.366Z,651.0000
2023-02-14T04:38:41.697Z,652.0000
2023-02-14T04:39:44.073Z,655.0000
2023-02-14T04:40:46.452Z,660.0000
2023-02-14T04:41:48.849Z,659.0000
2023-02-14T04:42:51.267Z,662.0000
2023-02-14T04:43:51.503Z,664.0000
2023-02-14T04:44:53.863Z,665.0000
2023-02-14T04:45:56.265Z,664.0000
2023-02-14T04:46:56.622Z,667.0000
2023-02-14T04:47:58.916Z,669.0000
2023-02-14T04:49:01.330Z,669.0000
2023-02-14T04:50:03.697Z,669.0000
2023-02-14T04:51:06.090Z,672.0000
2023-02-14T04:52:06.325Z,676.0000
2023-02-14T04:53:08.756Z,682.0000
2023-02-14T04:54:11.295Z,684.0000
2023-02-14T04:55:11.425Z,686.0000
2023-02-14T04:56:13.846Z,687.0000
2023-02-14T04:57:16.249Z,686.0000
2023-02-14T04:58:18.632Z,688.0000
2023-02-14T04:59:22.282Z,691.0000
2023-02-14T05:00:21.324Z,690.0000
2023-02-14T05:01:23.756Z,692.0000
2023-02-14T05:02:26.285Z,697.0000
2023-02-14T05:03:28.612Z,697.0000
2023-02-14T05:04:31.051Z,700.0000
2023-02-14T05:05:31.346Z,700.0000
2023-02-14T05:06:33.782Z,701.0000
2023-02-14T05:07:34.049Z,697.0000
2023-02-14T05:08:36.465Z,696.0000
2023-02-14T05:09:38.905Z,699.0000
2023-02-14T05:10:39.169Z,699.0000
2023-02-14T05:11:41.575Z,703.0000
2023-02-14T05:12:43.990Z,703.0000
2023-02-14T05:13:44.198Z,705.0000
2023-02-14T05:14:46.653Z,704.0000
2023-02-14T05:15:49.065Z,702.0000
2023-02-14T05:16:51.498Z,703.0000
2023-02-14T05:17:53.984Z,703.0000
2023-02-14T05:18:56.398Z,705.0000
2023-02-14T05:19:58.860Z,704.0000
2023-02-14T05:20:59.447Z,704.0000
2023-02-14T05:22:01.697Z,707.0000
2023-02-14T05:23:03.976Z,707.0000
2023-02-14T05:24:51.599Z,710.0000
2023-02-14T05:25:53.861Z,712.0000
2023-02-14T05:26:56.169Z,705.0000
2023-02-14T05:27:56.408Z,706.0000
2023-02-14T05:28:58.793Z,701.0000
2023-02-14T05:30:01.245Z,706.0000
2023-02-14T05:31:04.213Z,710.0000
2023-02-14T05:32:03.926Z,718.0000
2023-02-14T05:33:06.271Z,723.0000
2023-02-14T05:34:08.618Z,724.0000
2023-02-14T05:35:11.049Z,728.0000
2023-02-14T05:36:11.358Z,732.0000
2023-02-14T05:37:13.714Z,731.0000
2023-02-14T05:38:21.483Z,735.0000
2023-02-14T05:39:21.760Z,743.0000
2023-02-14T05:41:26.645Z,749.0000
2023-02-14T05:41:26.645Z,746.0000
2023-02-14T05:42:28.976Z,748.0000
2023-02-14T05:43:31.375Z,749.0000
2023-02-14T05:44:31.583Z,750.0000
2023-02-14T05:45:34.012Z,750.0000
2023-02-14T05:46:36.362Z,755.0000
2023-02-14T05:47:36.545Z,757.0000
2023-02-14T05:48:38.901Z,758.0000
2023-02-14T05:49:41.262Z,757.0000
2023-02-14T05:50:41.481Z,763.0000
2023-02-14T05:51:43.996Z,763.0000
2023-02-14T05:52:46.170Z,765.0000
2023-02-14T05:53:48.539Z,768.0000
2023-02-14T05:54:50.881Z,767.0000
2023-02-14T05:55:53.234Z,769.0000
2023-02-14T05:56:53.485Z,768.0000
2023-02-14T05:57:55.824Z,766.0000
2023-02-14T05:58:58.205Z,768.0000
2023-02-14T05:59:58.435Z,770.0000
2023-02-14T06:01:01.233Z,768.0000
2023-02-14T06:02:03.301Z,771.0000
2023-02-14T06:03:03.417Z,774.0000
2023-02-14T06:04:05.844Z,778.0000
2023-02-14T06:05:08.122Z,777.0000
2023-02-14T06:06:08.345Z,780.0000
2023-02-14T06:07:10.702Z,780.0000
2023-02-14T06:08:13.040Z,776.0000
2023-02-14T06:09:13.212Z,779.0000
2023-02-14T06:10:15.600Z,781.0000
2023-02-14T06:11:17.944Z,781.0000
2023-02-14T06:12:20.328Z,781.0000
2023-02-14T06:13:22.692Z,785.0000
2023-02-14T06:14:25.088Z,781.0000
2023-02-14T06:15:25.283Z,780.0000
2023-02-14T06:16:27.720Z,780.0000
2023-02-14T06:17:30.128Z,785.0000
2023-02-14T06:18:30.356Z,785.0000
2023-02-14T06:19:32.765Z,782.0000
2023-02-14T06:20:35.114Z,779.0000
2023-02-14T06:21:37.479Z,781.0000
2023-02-14T06:22:39.988Z,781.0000
2023-02-14T06:23:40.105Z,779.0000
2023-02-14T06:24:42.526Z,780.0000
2023-02-14T06:25:44.929Z,780.0000
2023-02-14T06:26:45.141Z,776.0000
2023-02-14T06:27:49.247Z,771.0000
2023-02-14T06:28:49.897Z,771.0000
2023-02-14T06:29:50.202Z,772.0000
2023-02-14T06:30:52.702Z,768.0000
2023-02-14T06:31:55.055Z,769.0000
2023-02-14T06:32:57.447Z,765.0000
2023-02-14T06:33:59.823Z,769.0000
2023-02-14T06:35:00.151Z,774.0000
2023-02-14T06:36:02.537Z,772.0000
2023-02-14T06:37:04.972Z,776.0000
2023-02-14T06:38:07.428Z,778.0000
2023-02-14T06:39:09.845Z,786.0000
2023-02-14T06:40:12.234Z,787.0000
2023-02-14T06:41:14.639Z,788.0000
2023-02-14T06:42:14.919Z,785.0000
2023-02-14T06:43:17.385Z,780.0000
2023-02-14T06:44:19.756Z,776.0000
2023-02-14T06:45:22.173Z,775.0000
2023-02-14T06:46:24.622Z,773.0000
2023-02-14T06:47:24.808Z,774.0000
2023-02-14T06:48:27.225Z,774.0000
2023-02-14T06:49:29.582Z,771.0000
2023-02-14T06:50:29.876Z,766.0000
2023-02-14T06:51:32.266Z,765.0000
2023-02-14T06:52:34.683Z,762.0000
2023-02-14T06:53:37.166Z,764.0000
2023-02-14T06:54:39.540Z,763.0000
2023-02-14T06:55:39.827Z,768.0000
2023-02-14T06:56:42.267Z,763.0000
2023-02-14T06:57:44.681Z,759.0000
2023-02-14T06:58:47.153Z,760.0000
2023-02-14T06:59:49.515Z,763.0000
2023-02-14T07:00:49.738Z,761.0000
2023-02-14T07:01:52.366Z,759.0000
2023-02-14T07:02:54.599Z,756.0000
2023-02-14T07:03:56.980Z,752.0000
2023-02-14T07:04:59.350Z,752.0000
2023-02-14T07:05:59.686Z,753.0000
2023-02-14T07:07:01.967Z,754.0000
2023-02-14T07:08:04.376Z,756.0000
2023-02-14T07:09:04.654Z,754.0000
2023-02-14T07:10:06.971Z,753.0000
2023-02-14T07:11:09.370Z,755.0000
2023-02-14T07:12:09.623Z,753.0000
2023-02-14T07:13:11.970Z,756.0000
2023-02-14T07:14:14.401Z,755.0000
2023-02-14T07:15:16.766Z,754.0000
2023-02-14T07:16:19.139Z,752.0000
2023-02-14T07:17:19.311Z,755.0000
2023-02-14T07:18:21.675Z,754.0000
2023-02-14T07:19:24.008Z,753.0000
2023-02-14T07:20:26.394Z,751.0000
2023-02-14T07:21:28.802Z,752.0000
2023-02-14T07:22:31.181Z,753.0000
2023-02-14T07:23:31.424Z,755.0000
2023-02-14T07:24:33.898Z,755.0000
2023-02-14T07:25:36.189Z,756.0000
2023-02-14T07:26:36.410Z,754.0000
2023-02-14T07:27:38.782Z,749.0000
2023-02-14T07:28:41.177Z,747.0000
2023-02-14T07:29:43.643Z,741.0000
2023-02-14T07:30:46.030Z,739.0000
2023-02-14T07:31:48.337Z,735.0000
2023-02-14T07:32:50.669Z,734.0000
2023-02-14T07:33:53.074Z,734.0000
2023-02-14T07:34:53.310Z,734.0000
2023-02-14T07:35:55.664Z,731.0000
2023-02-14T07:36:58.070Z,727.0000
2023-02-14T07:37:58.283Z,727.0000
2023-02-14T07:39:00.678Z,727.0000
2023-02-14T07:40:03.100Z,724.0000
2023-02-14T07:41:05.403Z,723.0000
2023-02-14T07:42:07.742Z,721.0000
2023-02-14T07:43:10.097Z,724.0000
2023-02-14T07:44:12.499Z,721.0000
2023-02-14T07:45:21.684Z,721.0000
2023-02-14T07:46:15.181Z,721.0000
2023-02-14T07:47:17.483Z,716.0000
2023-02-14T07:48:19.894Z,720.0000
2023-02-14T07:49:20.138Z,718.0000
2023-02-14T07:50:22.543Z,719.0000
2023-02-14T07:51:24.910Z,718.0000
2023-02-14T07:52:27.319Z,717.0000
2023-02-14T07:53:29.661Z,718.0000
2023-02-14T07:54:29.898Z,724.0000
2023-02-14T07:55:32.401Z,724.0000
2023-02-14T07:56:34.675Z,728.0000
2023-02-14T07:57:34.914Z,727.0000
2023-02-14T07:58:37.303Z,724.0000
2023-02-14T07:59:39.677Z,726.0000
2023-02-14T08:00:39.936Z,728.0000
2023-02-14T08:01:42.388Z,729.0000
2023-02-14T08:02:44.683Z,733.0000
2023-02-14T08:03:44.943Z,738.0000
2023-02-14T08:04:47.387Z,736.0000
2023-02-14T08:05:49.819Z,734.0000
2023-02-14T08:06:52.226Z,732.0000
2023-02-14T08:07:54.673Z,734.0000
2023-02-14T08:08:54.906Z,734.0000
2023-02-14T08:09:57.243Z,728.0000
2023-02-14T08:11:00.036Z,724.0000
2023-02-14T08:12:02.017Z,725.0000
2023-02-14T08:13:04.420Z,728.0000
2023-02-14T08:14:04.702Z,726.0000
2023-02-14T08:15:07.106Z,729.0000
2023-02-14T08:16:09.846Z,730.0000
2023-02-14T08:17:09.790Z,729.0000
2023-02-14T08:18:12.200Z,726.0000
2023-02-14T08:19:14.614Z,723.0000
2023-02-14T08:20:17.018Z,722.0000
2023-02-14T08:21:19.417Z,721.0000
2023-02-14T08:22:19.632Z,721.0000
2023-02-14T08:23:22.037Z,718.0000
2023-02-14T08:24:24.396Z,717.0000
2023-02-14T08:25:24.661Z,718.0000
2023-02-14T08:26:27.180Z,716.0000
2023-02-14T08:27:29.460Z,712.0000
2023-02-14T08:28:31.879Z,711.0000
2023-02-14T08:29:34.339Z,711.0000
2023-02-14T08:30:34.669Z,711.0000
2023-02-14T08:31:37.146Z,710.0000
2023-02-14T08:32:37.482Z,708.0000
2023-02-14T08:33:39.839Z,706.0000
2023-02-14T08:34:42.267Z,710.0000
2023-02-14T08:35:42.562Z,709.0000
2023-02-14T08:36:45.005Z,710.0000
2023-02-14T08:37:47.372Z,709.0000
2023-02-14T08:38:49.807Z,709.0000
2023-02-14T08:39:52.177Z,706.0000
2023-02-14T08:40:52.430Z,699.0000
2023-02-14T08:42:03.808Z,665.0000
2023-02-14T08:43:04.545Z,676.0000
2023-02-14T08:44:06.865Z,676.0000
2023-02-14T08:45:09.285Z,678.0000
2023-02-14T08:46:09.538Z,679.0000
2023-02-14T08:47:11.977Z,676.0000
2023-02-14T08:48:14.298Z,676.0000
2023-02-14T08:49:16.704Z,677.0000
2023-02-14T08:50:16.951Z,677.0000
2023-02-14T08:51:19.327Z,681.0000
2023-02-14T08:52:21.769Z,681.0000
2023-02-14T08:53:24.318Z,678.0000
2023-02-14T08:54:24.439Z,674.0000
2023-02-14T08:55:26.811Z,674.0000
2023-02-14T08:56:29.237Z,677.0000
2023-02-14T08:57:31.679Z,677.0000
2023-02-14T08:58:32.825Z,676.0000
2023-02-14T08:59:34.364Z,677.0000
2023-02-14T09:00:36.858Z,671.0000
2023-02-14T09:01:37.062Z,669.0000
2023-02-14T09:02:39.433Z,669.0000
2023-02-14T09:03:41.822Z,671.0000
2023-02-14T09:04:44.174Z,668.0000
2023-02-14T09:05:46.534Z,663.0000
2023-02-14T09:06:46.724Z,663.0000
2023-02-14T09:07:49.145Z,664.0000
2023-02-14T09:08:51.516Z,662.0000
2023-02-14T09:09:53.934Z,660.0000
2023-02-14T09:10:54.192Z,663.0000
2023-02-14T09:11:56.582Z,662.0000
2023-02-14T09:12:58.918Z,664.0000
2023-02-14T09:14:01.247Z,663.0000
2023-02-14T09:15:03.614Z,665.0000
2023-02-14T09:16:03.994Z,665.0000
2023-02-14T09:17:06.321Z,667.0000
2023-02-14T09:18:08.668Z,664.0000
2023-02-14T09:19:11.105Z,665.0000
2023-02-14T09:20:11.269Z,666.0000
2023-02-14T09:21:13.698Z,672.0000
2023-02-14T09:22:15.981Z,665.0000
2023-02-14T09:23:18.284Z,638.0000
2023-02-14T09:24:18.493Z,657.0000
2023-02-14T09:25:20.850Z,665.0000
2023-02-14T09:26:23.128Z,664.0000
2023-02-14T09:27:25.440Z,663.0000
2023-02-14T09:28:27.813Z,664.0000
2023-02-14T09:29:30.098Z,659.0000
2023-02-14T09:30:30.427Z,661.0000
2023-02-14T09:31:32.729Z,662.0000
2023-02-14T09:32:35.032Z,656.0000
2023-02-14T09:33:37.435Z,655.0000
2023-02-14T09:34:37.604Z,651.0000
2023-02-14T09:35:39.972Z,655.0000
2023-02-14T09:36:42.336Z,656.0000
2023-02-14T09:37:44.684Z,655.0000
2023-02-14T09:38:47.059Z,654.0000
2023-02-14T09:39:47.259Z,655.0000
2023-02-14T09:40:49.656Z,657.0000
2023-02-14T09:41:51.980Z,657.0000
2023-02-14T09:42:54.326Z,659.0000
2023-02-14T09:43:56.707Z,661.0000
2023-02-14T09:44:56.848Z,657.0000
2023-02-14T09:45:59.353Z,651.0000
2023-02-14T09:47:01.576Z,655.0000
2023-02-14T09:48:03.942Z,653.0000
2023-02-14T09:49:06.348Z,654.0000
2023-02-14T09:50:06.542Z,651.0000
2023-02-14T09:51:08.886Z,647.0000
2023-02-14T09:52:11.231Z,645.0000
2023-02-14T09:53:13.587Z,647.0000
2023-02-14T09:54:15.962Z,643.0000
2023-02-14T09:55:16.143Z,641.0000
2023-02-14T09:56:18.523Z,639.0000
2023-02-14T09:57:20.857Z,640.0000
2023-02-14T09:58:23.208Z,642.0000
2023-02-14T09:59:23.412Z,638.0000
2023-02-14T10:00:25.716Z,641.0000
2023-02-14T10:01:28.163Z,635.0000
2023-02-14T10:03:26.404Z,636.0000
2023-02-14T10:04:28.743Z,639.0000
2023-02-14T10:05:29.936Z,639.0000
2023-02-14T10:06:31.297Z,641.0000
2023-02-14T10:07:33.684Z,637.0000
2023-02-14T10:08:36.070Z,626.0000
2023-02-14T10:09:38.487Z,631.0000
2023-02-14T10:10:39.708Z,641.0000
2023-02-14T10:11:41.066Z,631.0000
2023-02-14T10:12:43.398Z,627.0000
2023-02-14T10:13:45.743Z,632.0000
2023-02-14T10:14:48.078Z,636.0000
2023-02-14T10:15:50.395Z,633.0000
2023-02-14T10:16:50.696Z,628.0000
2023-02-14T10:17:52.993Z,620.0000
2023-02-14T10:18:55.344Z,630.0000
2023-02-14T10:19:57.797Z,625.0000
2023-02-14T10:20:58.387Z,626.0000
2023-02-14T10:22:00.339Z,635.0000
2023-02-14T10:23:02.719Z,628.0000
2023-02-14T10:24:05.127Z,627.0000
2023-02-14T10:25:05.438Z,636.0000
2023-02-14T10:26:07.794Z,635.0000
2023-02-14T10:27:10.324Z,635.0000
2023-02-14T10:28:12.619Z,634.0000
2023-02-14T10:29:12.841Z,631.0000
2023-02-14T10:30:16.974Z,627.0000
2023-02-14T10:31:17.806Z,627.0000
2023-02-14T10:32:20.164Z,626.0000
2023-02-14T10:33:20.244Z,628.0000
2023-02-14T10:34:22.626Z,629.0000
2023-02-14T10:35:24.974Z,631.0000
2023-02-14T10:36:27.313Z,629.0000
2023-02-14T10:37:29.662Z,626.0000
2023-02-14T10:38:29.865Z,625.0000
2023-02-14T10:39:32.194Z,630.0000
2023-02-14T10:40:34.544Z,628.0000
2023-02-14T10:41:36.794Z,626.0000
2023-02-14T10:42:39.100Z,626.0000
2023-02-14T10:43:39.267Z,623.0000
2023-02-14T10:44:41.616Z,623.0000
2023-02-14T10:45:44.025Z,622.0000
2023-02-14T10:46:46.331Z,623.0000
2023-02-14T10:47:48.693Z,621.0000
2023-02-14T10:48:51.036Z,620.0000
2023-02-14T10:49:51.183Z,621.0000
2023-02-14T10:50:53.567Z,621.0000
2023-02-14T10:51:55.894Z,623.0000
2023-02-14T10:52:58.251Z,620.0000
2023-02-14T10:53:58.446Z,624.0000
2023-02-14T10:55:00.824Z,625.0000
2023-02-14T10:56:03.266Z,626.0000
2023-02-14T10:57:05.540Z,629.0000
2023-02-14T10:58:07.912Z,625.0000
2023-02-14T10:59:08.100Z,625.0000
2023-02-14T11:00:10.458Z,623.0000
2023-02-14T11:01:12.968Z,621.0000
2023-02-14T11:02:15.150Z,619.0000
2023-02-14T11:03:17.564Z,616.0000
2023-02-14T11:04:17.700Z,614.0000
2023-02-14T11:05:20.018Z,615.0000
2023-02-14T11:06:22.416Z,615.0000
2023-02-14T11:07:24.721Z,614.0000
2023-02-14T11:08:27.095Z,615.0000
2023-02-14T11:09:27.281Z,613.0000
2023-02-14T11:10:29.626Z,611.0000
2023-02-14T11:11:31.973Z,613.0000
2023-02-14T11:12:34.293Z,610.0000
2023-02-14T11:13:36.658Z,614.0000
2023-02-14T11:14:36.834Z,612.0000
2023-02-14T11:15:39.177Z,608.0000
2023-02-14T11:16:41.687Z,609.0000
2023-02-14T11:17:43.914Z,610.0000
2023-02-14T11:18:44.103Z,612.0000
2023-02-14T11:19:46.452Z,610.0000
2023-02-14T11:20:48.761Z,611.0000
2023-02-14T11:21:51.102Z,611.0000
2023-02-14T11:22:53.409Z,611.0000
2023-02-14T11:23:55.784Z,611.0000
2023-02-14T11:24:55.970Z,608.0000
2023-02-14T11:25:58.558Z,608.0000
2023-02-14T11:27:00.661Z,607.0000
2023-02-14T11:28:02.970Z,606.0000
2023-02-14T11:29:05.316Z,604.0000
2023-02-14T11:30:05.549Z,605.0000
2023-02-14T11:31:07.965Z,606.0000
2023-02-14T11:32:10.221Z,606.0000
2023-02-14T11:33:12.451Z,606.0000
2023-02-14T11:34:14.798Z,603.0000
2023-02-14T11:35:17.176Z,601.0000
2023-02-14T11:36:17.351Z,601.0000
2023-02-14T11:37:19.995Z,602.0000
2023-02-14T11:38:22.061Z,607.0000
2023-02-14T11:39:24.423Z,610.0000
2023-02-14T11:40:24.669Z,614.0000
2023-02-14T11:41:27.059Z,615.0000
2023-02-14T11:42:29.454Z,620.0000
2023-02-14T11:43:31.805Z,624.0000
2023-02-14T11:44:34.202Z,627.0000
2023-02-14T11:46:38.486Z,610.0000
2023-02-14T11:47:37.027Z,613.0000
2023-02-14T11:48:39.713Z,607.0000
2023-02-14T11:49:41.749Z,612.0000
2023-02-14T11:50:44.167Z,616.0000
2023-02-14T11:51:46.545Z,618.0000
2023-02-14T11:52:48.958Z,618.0000
2023-02-14T11:53:51.272Z,614.0000
2023-02-14T11:54:53.606Z,615.0000
2023-02-14T11:55:53.799Z,616.0000
2023-02-14T11:56:56.126Z,617.0000
2023-02-14T11:57:58.476Z,617.0000
2023-02-14T11:59:00.807Z,616.0000
2023-02-14T12:00:03.221Z,621.0000
2023-02-14T12:01:03.394Z,621.0000
2023-02-14T12:02:05.801Z,618.0000
2023-02-14T12:03:08.181Z,617.0000
2023-02-14T12:04:10.489Z,615.0000
2023-02-14T12:05:12.869Z,621.0000
2023-02-14T12:06:13.024Z,629.0000
2023-02-14T12:07:15.413Z,624.0000
2023-02-14T12:08:17.753Z,619.0000
2023-02-14T12:09:20.123Z,622.0000
2023-02-14T12:10:20.322Z,624.0000
2023-02-14T12:11:22.667Z,620.0000
2023-02-14T12:12:25.020Z,628.0000
2023-02-14T12:13:27.414Z,623.0000